sensor_id;sensor_type;location;lat;lon;timestamp;P1;durP1;ratioP1;P2;durP2;ratioP2
14203;SDS011;7185;51.854;6.622;2023-04-25T00:01:28;7.50;;;3.17;;
14203;SDS011;7185;51.854;6.622;2023-04-25T00:04:00;9.20;;;3.58;;
14203;SDS011;7185;51.854;6.622;2023-04-25T00:06:32;8.20;;;2.78;;
14203;SDS011;7185;51.854;6.622;2023-04-25T00:09:06;6.85;;;2.88;;
14203;SDS011;7185;51.854;6.622;2023-04-25T00:11:39;9.07;;;2.90;;
14203;SDS011;7185;51.854;6.622;2023-04-25T00:14:11;12.73;;;3.10;;
14203;SDS011;7185;51.854;6.622;2023-04-25T00:16:43;6.50;;;2.88;;
14203;SDS011;7185;51.854;6.622;2023-04-25T00:19:16;7.20;;;2.80;;
14203;SDS011;7185;51.854;6.622;2023-04-25T00:21:47;8.77;;;2.97;;
14203;SDS011;7185;51.854;6.622;2023-04-25T00:24:20;8.70;;;3.13;;
14203;SDS011;7185;51.854;6.622;2023-04-25T00:26:51;8.02;;;2.92;;
14203;SDS011;7185;51.854;6.622;2023-04-25T00:29:23;8.93;;;3.17;;
14203;SDS011;7185;51.854;6.622;2023-04-25T00:31:54;12.40;;;3.53;;
14203;SDS011;7185;51.854;6.622;2023-04-25T00:34:27;13.63;;;2.75;;
14203;SDS011;7185;51.854;6.622;2023-04-25T00:36:59;10.18;;;3.08;;
14203;SDS011;7185;51.854;6.622;2023-04-25T00:39:31;7.03;;;3.05;;
14203;SDS011;7185;51.854;6.622;2023-04-25T00:42:03;8.20;;;3.22;;
14203;SDS011;7185;51.854;6.622;2023-04-25T00:44:35;11.13;;;2.92;;
14203;SDS011;7185;51.854;6.622;2023-04-25T00:47:08;9.50;;;2.80;;
14203;SDS011;7185;51.854;6.622;2023-04-25T00:49:43;11.90;;;3.58;;
14203;SDS011;7185;51.854;6.622;2023-04-25T00:52:15;14.63;;;3.35;;
14203;SDS011;7185;51.854;6.622;2023-04-25T00:54:47;11.02;;;3.33;;
14203;SDS011;7185;51.854;6.622;2023-04-25T00:57:18;10.27;;;3.50;;
14203;SDS011;7185;51.854;6.622;2023-04-25T00:59:50;11.13;;;3.58;;
14203;SDS011;7185;51.854;6.622;2023-04-25T01:02:22;13.77;;;3.30;;
14203;SDS011;7185;51.854;6.622;2023-04-25T01:04:56;10.77;;;3.30;;
14203;SDS011;7185;51.854;6.622;2023-04-25T01:07:28;12.45;;;3.80;;
14203;SDS011;7185;51.854;6.622;2023-04-25T01:10:00;12.93;;;3.20;;
14203;SDS011;7185;51.854;6.622;2023-04-25T01:12:33;11.10;;;3.75;;
14203;SDS011;7185;51.854;6.622;2023-04-25T01:15:05;8.63;;;3.30;;
14203;SDS011;7185;51.854;6.622;2023-04-25T01:17:37;11.25;;;3.33;;
14203;SDS011;7185;51.854;6.622;2023-04-25T01:20:12;17.27;;;3.47;;
14203;SDS011;7185;51.854;6.622;2023-04-25T01:22:46;20.30;;;3.63;;
14203;SDS011;7185;51.854;6.622;2023-04-25T01:25:18;14.75;;;3.40;;
14203;SDS011;7185;51.854;6.622;2023-04-25T01:27:50;15.10;;;3.70;;
14203;SDS011;7185;51.854;6.622;2023-04-25T01:30:22;13.77;;;3.72;;
14203;SDS011;7185;51.854;6.622;2023-04-25T01:32:55;14.27;;;3.55;;
14203;SDS011;7185;51.854;6.622;2023-04-25T01:35:27;12.57;;;3.70;;
14203;SDS011;7185;51.854;6.622;2023-04-25T01:38:00;13.75;;;3.92;;
14203;SDS011;7185;51.854;6.622;2023-04-25T01:40:31;12.55;;;3.30;;
14203;SDS011;7185;51.854;6.622;2023-04-25T01:43:06;13.32;;;3.58;;
14203;SDS011;7185;51.854;6.622;2023-04-25T01:45:38;13.80;;;3.42;;
14203;SDS011;7185;51.854;6.622;2023-04-25T01:48:11;14.73;;;3.35;;
14203;SDS011;7185;51.854;6.622;2023-04-25T01:50:44;12.57;;;3.17;;
14203;SDS011;7185;51.854;6.622;2023-04-25T01:53:17;11.05;;;3.53;;
14203;SDS011;7185;51.854;6.622;2023-04-25T01:55:49;14.07;;;3.70;;
14203;SDS011;7185;51.854;6.622;2023-04-25T01:58:20;14.90;;;5.10;;
14203;SDS011;7185;51.854;6.622;2023-04-25T02:00:52;13.30;;;3.72;;
14203;SDS011;7185;51.854;6.622;2023-04-25T02:03:23;16.23;;;3.50;;
14203;SDS011;7185;51.854;6.622;2023-04-25T02:05:55;16.98;;;3.83;;
14203;SDS011;7185;51.854;6.622;2023-04-25T02:08:28;16.83;;;3.67;;
14203;SDS011;7185;51.854;6.622;2023-04-25T02:11:00;11.98;;;3.90;;
14203;SDS011;7185;51.854;6.622;2023-04-25T02:13:33;12.73;;;3.50;;
14203;SDS011;7185;51.854;6.622;2023-04-25T02:16:05;16.15;;;3.90;;
14203;SDS011;7185;51.854;6.622;2023-04-25T02:18:36;13.68;;;4.25;;
14203;SDS011;7185;51.854;6.622;2023-04-25T02:21:09;14.00;;;3.65;;
14203;SDS011;7185;51.854;6.622;2023-04-25T02:23:42;17.13;;;3.92;;
14203;SDS011;7185;51.854;6.622;2023-04-25T02:26:16;14.38;;;4.28;;
14203;SDS011;7185;51.854;6.622;2023-04-25T02:28:47;17.83;;;4.40;;
14203;SDS011;7185;51.854;6.622;2023-04-25T02:31:19;16.05;;;4.28;;
14203;SDS011;7185;51.854;6.622;2023-04-25T02:33:51;15.05;;;4.45;;
14203;SDS011;7185;51.854;6.622;2023-04-25T02:36:22;17.00;;;3.85;;
14203;SDS011;7185;51.854;6.622;2023-04-25T02:38:55;10.52;;;3.55;;
14203;SDS011;7185;51.854;6.622;2023-04-25T02:41:27;16.60;;;3.60;;
14203;SDS011;7185;51.854;6.622;2023-04-25T02:43:58;13.07;;;3.72;;
14203;SDS011;7185;51.854;6.622;2023-04-25T02:46:30;18.27;;;3.90;;
14203;SDS011;7185;51.854;6.622;2023-04-25T02:49:01;11.98;;;3.65;;
14203;SDS011;7185;51.854;6.622;2023-04-25T02:51:33;15.13;;;3.58;;
14203;SDS011;7185;51.854;6.622;2023-04-25T02:54:06;14.35;;;3.45;;
14203;SDS011;7185;51.854;6.622;2023-04-25T02:56:37;13.98;;;3.80;;
14203;SDS011;7185;51.854;6.622;2023-04-25T02:59:09;11.77;;;3.28;;
14203;SDS011;7185;51.854;6.622;2023-04-25T03:01:41;16.48;;;3.45;;
14203;SDS011;7185;51.854;6.622;2023-04-25T03:04:12;11.63;;;3.70;;
14203;SDS011;7185;51.854;6.622;2023-04-25T03:06:44;10.43;;;4.32;;
14203;SDS011;7185;51.854;6.622;2023-04-25T03:09:17;12.95;;;4.10;;
14203;SDS011;7185;51.854;6.622;2023-04-25T03:11:48;15.55;;;3.90;;
14203;SDS011;7185;51.854;6.622;2023-04-25T03:14:20;18.10;;;4.25;;
14203;SDS011;7185;51.854;6.622;2023-04-25T03:16:52;17.02;;;4.32;;
14203;SDS011;7185;51.854;6.622;2023-04-25T03:19:23;9.75;;;4.25;;
14203;SDS011;7185;51.854;6.622;2023-04-25T03:21:55;13.85;;;4.45;;
14203;SDS011;7185;51.854;6.622;2023-04-25T03:24:28;11.48;;;4.65;;
14203;SDS011;7185;51.854;6.622;2023-04-25T03:27:00;15.65;;;4.70;;
14203;SDS011;7185;51.854;6.622;2023-04-25T03:29:31;15.70;;;5.10;;
14203;SDS011;7185;51.854;6.622;2023-04-25T03:32:03;20.90;;;5.05;;
14203;SDS011;7185;51.854;6.622;2023-04-25T03:34:35;21.15;;;5.53;;
14203;SDS011;7185;51.854;6.622;2023-04-25T03:37:06;16.90;;;4.55;;
14203;SDS011;7185;51.854;6.622;2023-04-25T03:39:39;16.85;;;4.93;;
14203;SDS011;7185;51.854;6.622;2023-04-25T03:42:11;20.42;;;4.85;;
14203;SDS011;7185;51.854;6.622;2023-04-25T03:44:43;22.10;;;5.50;;
14203;SDS011;7185;51.854;6.622;2023-04-25T03:47:14;17.05;;;5.47;;
14203;SDS011;7185;51.854;6.622;2023-04-25T03:49:46;17.02;;;5.00;;
14203;SDS011;7185;51.854;6.622;2023-04-25T03:52:19;16.33;;;5.45;;
14203;SDS011;7185;51.854;6.622;2023-04-25T03:54:52;16.67;;;5.32;;
14203;SDS011;7185;51.854;6.622;2023-04-25T03:57:23;18.38;;;5.45;;
14203;SDS011;7185;51.854;6.622;2023-04-25T03:59:55;19.70;;;5.30;;
14203;SDS011;7185;51.854;6.622;2023-04-25T04:02:27;17.83;;;4.80;;
14203;SDS011;7185;51.854;6.622;2023-04-25T04:04:58;18.60;;;5.65;;
14203;SDS011;7185;51.854;6.622;2023-04-25T04:07:30;21.33;;;5.45;;
14203;SDS011;7185;51.854;6.622;2023-04-25T04:10:04;16.88;;;5.05;;
14203;SDS011;7185;51.854;6.622;2023-04-25T04:12:37;19.95;;;5.35;;
14203;SDS011;7185;51.854;6.622;2023-04-25T04:15:09;17.95;;;5.18;;
14203;SDS011;7185;51.854;6.622;2023-04-25T04:17:41;17.02;;;5.70;;
14203;SDS011;7185;51.854;6.622;2023-04-25T04:20:13;16.23;;;4.68;;
14203;SDS011;7185;51.854;6.622;2023-04-25T04:22:45;13.80;;;4.85;;
14203;SDS011;7185;51.854;6.622;2023-04-25T04:25:19;16.00;;;5.20;;
14203;SDS011;7185;51.854;6.622;2023-04-25T04:27:50;23.58;;;5.43;;
14203;SDS011;7185;51.854;6.622;2023-04-25T04:30:24;20.30;;;5.18;;
14203;SDS011;7185;51.854;6.622;2023-04-25T04:32:59;23.92;;;5.75;;
14203;SDS011;7185;51.854;6.622;2023-04-25T04:35:31;34.88;;;6.32;;
14203;SDS011;7185;51.854;6.622;2023-04-25T04:38:03;20.10;;;5.32;;
14203;SDS011;7185;51.854;6.622;2023-04-25T04:40:36;18.27;;;5.05;;
14203;SDS011;7185;51.854;6.622;2023-04-25T04:43:08;21.08;;;4.93;;
14203;SDS011;7185;51.854;6.622;2023-04-25T04:45:40;18.73;;;4.93;;
14203;SDS011;7185;51.854;6.622;2023-04-25T04:48:11;23.50;;;6.03;;
14203;SDS011;7185;51.854;6.622;2023-04-25T04:50:44;19.85;;;5.20;;
14203;SDS011;7185;51.854;6.622;2023-04-25T04:53:16;15.52;;;4.88;;
14203;SDS011;7185;51.854;6.622;2023-04-25T04:55:49;14.88;;;5.07;;
14203;SDS011;7185;51.854;6.622;2023-04-25T04:58:21;17.98;;;5.75;;
14203;SDS011;7185;51.854;6.622;2023-04-25T05:00:53;15.90;;;5.22;;
14203;SDS011;7185;51.854;6.622;2023-04-25T05:03:25;17.70;;;5.13;;
14203;SDS011;7185;51.854;6.622;2023-04-25T05:05:57;22.10;;;5.65;;
14203;SDS011;7185;51.854;6.622;2023-04-25T05:08:28;17.55;;;5.60;;
14203;SDS011;7185;51.854;6.622;2023-04-25T05:13:34;17.25;;;6.20;;
14203;SDS011;7185;51.854;6.622;2023-04-25T05:16:05;21.95;;;6.22;;
14203;SDS011;7185;51.854;6.622;2023-04-25T05:18:38;20.67;;;5.22;;
14203;SDS011;7185;51.854;6.622;2023-04-25T05:21:11;16.23;;;4.60;;
14203;SDS011;7185;51.854;6.622;2023-04-25T05:23:46;18.02;;;4.55;;
14203;SDS011;7185;51.854;6.622;2023-04-25T05:26:17;18.75;;;4.70;;
14203;SDS011;7185;51.854;6.622;2023-04-25T05:28:51;16.42;;;4.38;;
14203;SDS011;7185;51.854;6.622;2023-04-25T05:31:23;7.63;;;3.75;;
14203;SDS011;7185;51.854;6.622;2023-04-25T05:33:55;16.23;;;3.85;;
14203;SDS011;7185;51.854;6.622;2023-04-25T05:36:26;13.23;;;4.35;;
14203;SDS011;7185;51.854;6.622;2023-04-25T05:38:58;19.15;;;4.10;;
14203;SDS011;7185;51.854;6.622;2023-04-25T05:41:29;15.25;;;3.90;;
14203;SDS011;7185;51.854;6.622;2023-04-25T05:44:02;8.88;;;3.28;;
14203;SDS011;7185;51.854;6.622;2023-04-25T05:46:34;13.20;;;4.22;;
14203;SDS011;7185;51.854;6.622;2023-04-25T05:49:06;12.85;;;3.95;;
14203;SDS011;7185;51.854;6.622;2023-04-25T05:51:37;17.35;;;4.22;;
14203;SDS011;7185;51.854;6.622;2023-04-25T05:54:09;11.40;;;3.58;;
14203;SDS011;7185;51.854;6.622;2023-04-25T05:56:41;12.35;;;3.25;;
14203;SDS011;7185;51.854;6.622;2023-04-25T05:59:13;10.38;;;3.28;;
14203;SDS011;7185;51.854;6.622;2023-04-25T06:01:45;14.77;;;3.17;;
14203;SDS011;7185;51.854;6.622;2023-04-25T06:04:17;15.07;;;3.88;;
14203;SDS011;7185;51.854;6.622;2023-04-25T06:06:49;16.38;;;3.40;;
14203;SDS011;7185;51.854;6.622;2023-04-25T06:09:20;9.55;;;3.85;;
14203;SDS011;7185;51.854;6.622;2023-04-25T06:11:52;11.25;;;2.97;;
14203;SDS011;7185;51.854;6.622;2023-04-25T06:14:25;10.93;;;3.67;;
14203;SDS011;7185;51.854;6.622;2023-04-25T06:16:57;13.60;;;3.65;;
14203;SDS011;7185;51.854;6.622;2023-04-25T06:19:28;11.18;;;3.60;;
14203;SDS011;7185;51.854;6.622;2023-04-25T06:22:03;13.77;;;3.40;;
14203;SDS011;7185;51.854;6.622;2023-04-25T06:24:34;11.90;;;3.90;;
14203;SDS011;7185;51.854;6.622;2023-04-25T06:27:06;13.55;;;3.72;;
14203;SDS011;7185;51.854;6.622;2023-04-25T06:29:39;8.80;;;3.60;;
14203;SDS011;7185;51.854;6.622;2023-04-25T06:32:11;14.65;;;4.20;;
14203;SDS011;7185;51.854;6.622;2023-04-25T06:34:42;10.93;;;4.03;;
14203;SDS011;7185;51.854;6.622;2023-04-25T06:37:14;10.35;;;3.25;;
14203;SDS011;7185;51.854;6.622;2023-04-25T06:39:45;13.90;;;3.50;;
14203;SDS011;7185;51.854;6.622;2023-04-25T06:42:17;18.63;;;3.80;;
14203;SDS011;7185;51.854;6.622;2023-04-25T06:44:50;16.92;;;4.30;;
14203;SDS011;7185;51.854;6.622;2023-04-25T06:47:22;9.75;;;3.78;;
14203;SDS011;7185;51.854;6.622;2023-04-25T06:49:54;11.43;;;3.45;;
14203;SDS011;7185;51.854;6.622;2023-04-25T06:52:26;10.63;;;3.60;;
14203;SDS011;7185;51.854;6.622;2023-04-25T06:54:58;9.35;;;3.25;;
14203;SDS011;7185;51.854;6.622;2023-04-25T06:57:29;10.55;;;3.10;;
14203;SDS011;7185;51.854;6.622;2023-04-25T07:00:03;9.63;;;3.33;;
14203;SDS011;7185;51.854;6.622;2023-04-25T07:02:38;11.38;;;3.08;;
14203;SDS011;7185;51.854;6.622;2023-04-25T07:05:15;12.93;;;3.10;;
14203;SDS011;7185;51.854;6.622;2023-04-25T07:07:47;8.85;;;3.10;;
14203;SDS011;7185;51.854;6.622;2023-04-25T07:10:18;9.63;;;3.28;;
14203;SDS011;7185;51.854;6.622;2023-04-25T07:12:51;12.43;;;3.10;;
14203;SDS011;7185;51.854;6.622;2023-04-25T07:15:24;9.07;;;2.63;;
14203;SDS011;7185;51.854;6.622;2023-04-25T07:17:55;10.35;;;3.00;;
14203;SDS011;7185;51.854;6.622;2023-04-25T07:20:27;10.20;;;3.03;;
14203;SDS011;7185;51.854;6.622;2023-04-25T07:23:00;7.38;;;2.47;;
14203;SDS011;7185;51.854;6.622;2023-04-25T07:25:33;8.02;;;2.63;;
14203;SDS011;7185;51.854;6.622;2023-04-25T07:28:05;11.52;;;2.28;;
14203;SDS011;7185;51.854;6.622;2023-04-25T07:30:38;11.05;;;2.58;;
14203;SDS011;7185;51.854;6.622;2023-04-25T07:33:09;13.73;;;2.70;;
14203;SDS011;7185;51.854;6.622;2023-04-25T07:35:41;12.30;;;2.65;;
14203;SDS011;7185;51.854;6.622;2023-04-25T07:38:12;11.45;;;2.72;;
14203;SDS011;7185;51.854;6.622;2023-04-25T07:40:44;12.32;;;2.25;;
14203;SDS011;7185;51.854;6.622;2023-04-25T07:43:16;8.93;;;2.50;;
14203;SDS011;7185;51.854;6.622;2023-04-25T07:45:49;9.63;;;2.88;;
14203;SDS011;7185;51.854;6.622;2023-04-25T07:48:21;6.82;;;2.22;;
14203;SDS011;7185;51.854;6.622;2023-04-25T07:50:53;11.57;;;2.05;;
14203;SDS011;7185;51.854;6.622;2023-04-25T07:53:24;16.33;;;3.00;;
14203;SDS011;7185;51.854;6.622;2023-04-25T07:55:56;8.50;;;2.25;;
14203;SDS011;7185;51.854;6.622;2023-04-25T07:58:27;10.65;;;2.67;;
14203;SDS011;7185;51.854;6.622;2023-04-25T08:01:01;11.35;;;2.55;;
14203;SDS011;7185;51.854;6.622;2023-04-25T08:03:32;12.60;;;3.25;;
14203;SDS011;7185;51.854;6.622;2023-04-25T08:06:04;8.98;;;2.15;;
14203;SDS011;7185;51.854;6.622;2023-04-25T08:08:36;10.20;;;2.17;;
14203;SDS011;7185;51.854;6.622;2023-04-25T08:11:07;13.80;;;2.40;;
14203;SDS011;7185;51.854;6.622;2023-04-25T08:13:39;8.10;;;2.20;;
14203;SDS011;7185;51.854;6.622;2023-04-25T08:16:12;9.75;;;2.53;;
14203;SDS011;7185;51.854;6.622;2023-04-25T08:18:44;12.85;;;2.63;;
14203;SDS011;7185;51.854;6.622;2023-04-25T08:21:16;11.95;;;2.40;;
14203;SDS011;7185;51.854;6.622;2023-04-25T08:23:48;8.30;;;2.25;;
14203;SDS011;7185;51.854;6.622;2023-04-25T08:26:20;12.15;;;2.50;;
14203;SDS011;7185;51.854;6.622;2023-04-25T08:28:51;9.98;;;1.70;;
14203;SDS011;7185;51.854;6.622;2023-04-25T08:31:25;10.90;;;2.25;;
14203;SDS011;7185;51.854;6.622;2023-04-25T08:33:59;15.38;;;2.42;;
14203;SDS011;7185;51.854;6.622;2023-04-25T08:36:30;11.25;;;2.35;;
14203;SDS011;7185;51.854;6.622;2023-04-25T08:39:02;10.93;;;3.13;;
14203;SDS011;7185;51.854;6.622;2023-04-25T08:41:34;12.90;;;2.08;;
14203;SDS011;7185;51.854;6.622;2023-04-25T08:44:11;10.10;;;2.20;;
14203;SDS011;7185;51.854;6.622;2023-04-25T08:46:45;7.07;;;2.03;;
14203;SDS011;7185;51.854;6.622;2023-04-25T08:49:19;8.43;;;1.75;;
14203;SDS011;7185;51.854;6.622;2023-04-25T08:51:51;10.65;;;3.10;;
14203;SDS011;7185;51.854;6.622;2023-04-25T08:54:26;8.70;;;2.30;;
14203;SDS011;7185;51.854;6.622;2023-04-25T08:57:00;9.93;;;1.88;;
14203;SDS011;7185;51.854;6.622;2023-04-25T08:59:34;11.00;;;2.20;;
14203;SDS011;7185;51.854;6.622;2023-04-25T09:02:08;9.25;;;2.50;;
14203;SDS011;7185;51.854;6.622;2023-04-25T09:04:44;7.68;;;2.20;;
14203;SDS011;7185;51.854;6.622;2023-04-25T09:07:19;13.30;;;2.30;;
14203;SDS011;7185;51.854;6.622;2023-04-25T09:09:51;8.43;;;2.10;;
14203;SDS011;7185;51.854;6.622;2023-04-25T09:12:23;9.77;;;2.35;;
14203;SDS011;7185;51.854;6.622;2023-04-25T09:15:02;7.80;;;2.00;;
14203;SDS011;7185;51.854;6.622;2023-04-25T09:17:38;6.82;;;1.80;;
14203;SDS011;7185;51.854;6.622;2023-04-25T09:20:14;7.03;;;1.90;;
14203;SDS011;7185;51.854;6.622;2023-04-25T09:22:46;9.82;;;2.38;;
14203;SDS011;7185;51.854;6.622;2023-04-25T09:25:17;11.10;;;2.10;;
14203;SDS011;7185;51.854;6.622;2023-04-25T09:27:49;6.47;;;1.60;;
14203;SDS011;7185;51.854;6.622;2023-04-25T09:30:29;6.75;;;2.22;;
14203;SDS011;7185;51.854;6.622;2023-04-25T09:33:06;4.45;;;1.20;;
14203;SDS011;7185;51.854;6.622;2023-04-25T09:35:39;4.13;;;1.20;;
14203;SDS011;7185;51.854;6.622;2023-04-25T09:38:12;7.25;;;1.77;;
14203;SDS011;7185;51.854;6.622;2023-04-25T09:40:48;5.35;;;1.75;;
14203;SDS011;7185;51.854;6.622;2023-04-25T09:43:20;6.75;;;1.63;;
14203;SDS011;7185;51.854;6.622;2023-04-25T09:45:54;5.97;;;1.70;;
14203;SDS011;7185;51.854;6.622;2023-04-25T09:48:30;5.70;;;1.55;;
14203;SDS011;7185;51.854;6.622;2023-04-25T09:51:05;5.72;;;1.50;;
14203;SDS011;7185;51.854;6.622;2023-04-25T09:53:38;6.10;;;2.45;;
14203;SDS011;7185;51.854;6.622;2023-04-25T09:56:11;3.30;;;1.15;;
14203;SDS011;7185;51.854;6.622;2023-04-25T09:58:44;3.05;;;1.20;;
14203;SDS011;7185;51.854;6.622;2023-04-25T10:01:18;4.45;;;1.50;;
14203;SDS011;7185;51.854;6.622;2023-04-25T10:03:53;4.60;;;1.30;;
14203;SDS011;7185;51.854;6.622;2023-04-25T10:06:27;4.07;;;1.40;;
14203;SDS011;7185;51.854;6.622;2023-04-25T10:09:00;3.50;;;1.00;;
14203;SDS011;7185;51.854;6.622;2023-04-25T10:11:33;4.38;;;1.30;;
14203;SDS011;7185;51.854;6.622;2023-04-25T10:14:06;6.75;;;1.65;;
14203;SDS011;7185;51.854;6.622;2023-04-25T10:16:38;4.70;;;1.40;;
14203;SDS011;7185;51.854;6.622;2023-04-25T10:19:13;7.28;;;1.77;;
14203;SDS011;7185;51.854;6.622;2023-04-25T10:21:54;8.20;;;2.08;;
14203;SDS011;7185;51.854;6.622;2023-04-25T10:24:29;9.13;;;1.80;;
14203;SDS011;7185;51.854;6.622;2023-04-25T10:27:02;6.82;;;1.48;;
14203;SDS011;7185;51.854;6.622;2023-04-25T10:29:34;5.90;;;1.27;;
14203;SDS011;7185;51.854;6.622;2023-04-25T10:32:07;6.95;;;1.40;;
14203;SDS011;7185;51.854;6.622;2023-04-25T10:34:42;8.75;;;1.50;;
14203;SDS011;7185;51.854;6.622;2023-04-25T10:37:17;5.30;;;1.83;;
14203;SDS011;7185;51.854;6.622;2023-04-25T10:39:50;8.10;;;1.45;;
14203;SDS011;7185;51.854;6.622;2023-04-25T10:42:23;6.57;;;1.48;;
14203;SDS011;7185;51.854;6.622;2023-04-25T10:45:01;8.20;;;1.70;;
14203;SDS011;7185;51.854;6.622;2023-04-25T10:47:35;6.75;;;1.40;;
14203;SDS011;7185;51.854;6.622;2023-04-25T10:50:10;3.60;;;1.02;;
14203;SDS011;7185;51.854;6.622;2023-04-25T10:52:42;5.20;;;1.00;;
14203;SDS011;7185;51.854;6.622;2023-04-25T10:55:14;5.93;;;1.02;;
14203;SDS011;7185;51.854;6.622;2023-04-25T10:57:45;6.20;;;1.50;;
14203;SDS011;7185;51.854;6.622;2023-04-25T11:00:20;6.38;;;0.90;;
14203;SDS011;7185;51.854;6.622;2023-04-25T11:02:57;6.65;;;1.70;;
14203;SDS011;7185;51.854;6.622;2023-04-25T11:05:32;4.38;;;1.33;;
14203;SDS011;7185;51.854;6.622;2023-04-25T11:08:05;6.53;;;2.08;;
14203;SDS011;7185;51.854;6.622;2023-04-25T11:10:42;5.13;;;2.00;;
14203;SDS011;7185;51.854;6.622;2023-04-25T11:13:22;5.43;;;1.30;;
14203;SDS011;7185;51.854;6.622;2023-04-25T11:16:02;9.77;;;2.17;;
14203;SDS011;7185;51.854;6.622;2023-04-25T11:18:40;10.55;;;2.08;;
14203;SDS011;7185;51.854;6.622;2023-04-25T11:21:13;7.40;;;1.67;;
14203;SDS011;7185;51.854;6.622;2023-04-25T11:23:45;6.43;;;2.33;;
14203;SDS011;7185;51.854;6.622;2023-04-25T11:26:18;5.95;;;2.13;;
14203;SDS011;7185;51.854;6.622;2023-04-25T11:28:50;6.28;;;1.48;;
14203;SDS011;7185;51.854;6.622;2023-04-25T11:31:22;4.32;;;1.40;;
14203;SDS011;7185;51.854;6.622;2023-04-25T11:33:56;5.80;;;1.80;;
14203;SDS011;7185;51.854;6.622;2023-04-25T11:36:32;6.03;;;1.55;;
14203;SDS011;7185;51.854;6.622;2023-04-25T11:39:04;6.60;;;1.50;;
14203;SDS011;7185;51.854;6.622;2023-04-25T11:41:37;7.10;;;1.70;;
14203;SDS011;7185;51.854;6.622;2023-04-25T11:44:08;7.45;;;1.45;;
14203;SDS011;7185;51.854;6.622;2023-04-25T11:46:40;8.35;;;2.13;;
14203;SDS011;7185;51.854;6.622;2023-04-25T11:49:12;6.25;;;1.38;;
14203;SDS011;7185;51.854;6.622;2023-04-25T11:51:45;8.18;;;2.05;;
14203;SDS011;7185;51.854;6.622;2023-04-25T11:54:18;5.63;;;1.52;;
14203;SDS011;7185;51.854;6.622;2023-04-25T11:56:51;6.68;;;1.42;;
14203;SDS011;7185;51.854;6.622;2023-04-25T11:59:23;7.80;;;1.40;;
14203;SDS011;7185;51.854;6.622;2023-04-25T12:01:56;8.45;;;1.60;;
14203;SDS011;7185;51.854;6.622;2023-04-25T12:04:30;7.03;;;1.67;;
14203;SDS011;7185;51.854;6.622;2023-04-25T12:07:03;6.10;;;2.08;;
14203;SDS011;7185;51.854;6.622;2023-04-25T12:09:35;7.07;;;1.70;;
14203;SDS011;7185;51.854;6.622;2023-04-25T12:12:09;8.20;;;1.67;;
14203;SDS011;7185;51.854;6.622;2023-04-25T12:14:41;4.32;;;1.35;;
14203;SDS011;7185;51.854;6.622;2023-04-25T12:17:18;5.93;;;1.27;;
14203;SDS011;7185;51.854;6.622;2023-04-25T12:19:49;8.10;;;1.40;;
14203;SDS011;7185;51.854;6.622;2023-04-25T12:22:23;6.35;;;1.40;;
14203;SDS011;7185;51.854;6.622;2023-04-25T12:24:55;4.68;;;1.33;;
14203;SDS011;7185;51.854;6.622;2023-04-25T12:27:28;7.40;;;1.48;;
14203;SDS011;7185;51.854;6.622;2023-04-25T12:30:02;5.38;;;1.13;;
14203;SDS011;7185;51.854;6.622;2023-04-25T12:32:35;4.25;;;1.33;;
14203;SDS011;7185;51.854;6.622;2023-04-25T12:35:08;4.93;;;1.27;;
14203;SDS011;7185;51.854;6.622;2023-04-25T12:37:41;4.53;;;1.20;;
14203;SDS011;7185;51.854;6.622;2023-04-25T12:40:12;4.45;;;1.15;;
14203;SDS011;7185;51.854;6.622;2023-04-25T12:42:44;6.97;;;1.85;;
14203;SDS011;7185;51.854;6.622;2023-04-25T12:45:15;3.00;;;1.23;;
14203;SDS011;7185;51.854;6.622;2023-04-25T12:47:47;7.07;;;1.10;;
14203;SDS011;7185;51.854;6.622;2023-04-25T12:50:19;3.78;;;1.25;;
14203;SDS011;7185;51.854;6.622;2023-04-25T12:52:52;3.72;;;1.02;;
14203;SDS011;7185;51.854;6.622;2023-04-25T12:55:24;2.65;;;1.13;;
14203;SDS011;7185;51.854;6.622;2023-04-25T12:57:56;4.32;;;1.17;;
14203;SDS011;7185;51.854;6.622;2023-04-25T13:00:27;3.33;;;1.10;;
14203;SDS011;7185;51.854;6.622;2023-04-25T13:02:59;3.33;;;1.20;;
14203;SDS011;7185;51.854;6.622;2023-04-25T13:05:32;5.20;;;1.63;;
14203;SDS011;7185;51.854;6.622;2023-04-25T13:08:05;3.65;;;1.38;;
14203;SDS011;7185;51.854;6.622;2023-04-25T13:10:36;4.35;;;1.27;;
14203;SDS011;7185;51.854;6.622;2023-04-25T13:13:09;6.65;;;1.30;;
14203;SDS011;7185;51.854;6.622;2023-04-25T13:15:40;4.95;;;1.42;;
14203;SDS011;7185;51.854;6.622;2023-04-25T13:18:12;4.28;;;1.25;;
14203;SDS011;7185;51.854;6.622;2023-04-25T13:20:44;4.10;;;1.25;;
14203;SDS011;7185;51.854;6.622;2023-04-25T13:23:17;4.18;;;1.05;;
14203;SDS011;7185;51.854;6.622;2023-04-25T13:25:49;7.90;;;1.77;;
14203;SDS011;7185;51.854;6.622;2023-04-25T13:28:21;6.35;;;1.60;;
14203;SDS011;7185;51.854;6.622;2023-04-25T13:30:53;6.70;;;1.92;;
14203;SDS011;7185;51.854;6.622;2023-04-25T13:33:25;6.35;;;1.60;;
14203;SDS011;7185;51.854;6.622;2023-04-25T13:35:57;9.43;;;1.80;;
14203;SDS011;7185;51.854;6.622;2023-04-25T13:41:03;6.25;;;1.60;;
14203;SDS011;7185;51.854;6.622;2023-04-25T13:43:36;6.43;;;1.45;;
14203;SDS011;7185;51.854;6.622;2023-04-25T13:46:08;5.97;;;1.83;;
14203;SDS011;7185;51.854;6.622;2023-04-25T13:48:40;10.75;;;1.92;;
14203;SDS011;7185;51.854;6.622;2023-04-25T13:51:16;7.53;;;1.40;;
14203;SDS011;7185;51.854;6.622;2023-04-25T13:53:51;5.50;;;1.38;;
14203;SDS011;7185;51.854;6.622;2023-04-25T13:56:24;6.78;;;1.50;;
14203;SDS011;7185;51.854;6.622;2023-04-25T13:58:56;4.13;;;1.25;;
14203;SDS011;7185;51.854;6.622;2023-04-25T14:01:28;5.25;;;1.52;;
14203;SDS011;7185;51.854;6.622;2023-04-25T14:04:01;6.57;;;1.65;;
14203;SDS011;7185;51.854;6.622;2023-04-25T14:06:33;7.43;;;1.60;;
14203;SDS011;7185;51.854;6.622;2023-04-25T14:09:06;7.45;;;1.80;;
14203;SDS011;7185;51.854;6.622;2023-04-25T14:11:41;5.47;;;1.40;;
14203;SDS011;7185;51.854;6.622;2023-04-25T14:14:13;7.47;;;1.90;;
14203;SDS011;7185;51.854;6.622;2023-04-25T14:16:46;4.88;;;1.30;;
14203;SDS011;7185;51.854;6.622;2023-04-25T14:19:20;6.15;;;1.63;;
14203;SDS011;7185;51.854;6.622;2023-04-25T14:21:53;4.97;;;1.45;;
14203;SDS011;7185;51.854;6.622;2023-04-25T14:24:25;5.90;;;1.50;;
14203;SDS011;7185;51.854;6.622;2023-04-25T14:26:57;6.90;;;1.60;;
14203;SDS011;7185;51.854;6.622;2023-04-25T14:29:29;6.18;;;1.40;;
14203;SDS011;7185;51.854;6.622;2023-04-25T14:32:01;3.67;;;1.40;;
14203;SDS011;7185;51.854;6.622;2023-04-25T14:34:32;4.13;;;1.33;;
14203;SDS011;7185;51.854;6.622;2023-04-25T14:37:04;7.03;;;1.63;;
14203;SDS011;7185;51.854;6.622;2023-04-25T14:39:37;9.15;;;1.40;;
14203;SDS011;7185;51.854;6.622;2023-04-25T14:42:10;5.78;;;1.38;;
14203;SDS011;7185;51.854;6.622;2023-04-25T14:44:41;5.00;;;1.40;;
14203;SDS011;7185;51.854;6.622;2023-04-25T14:47:13;9.35;;;1.30;;
14203;SDS011;7185;51.854;6.622;2023-04-25T14:49:45;6.38;;;1.38;;
14203;SDS011;7185;51.854;6.622;2023-04-25T14:52:23;5.03;;;1.42;;
14203;SDS011;7185;51.854;6.622;2023-04-25T14:54:55;7.60;;;1.60;;
14203;SDS011;7185;51.854;6.622;2023-04-25T14:57:28;6.75;;;1.58;;
14203;SDS011;7185;51.854;6.622;2023-04-25T15:00:00;4.38;;;1.20;;
14203;SDS011;7185;51.854;6.622;2023-04-25T15:02:32;6.40;;;1.27;;
14203;SDS011;7185;51.854;6.622;2023-04-25T15:05:04;6.90;;;1.27;;
14203;SDS011;7185;51.854;6.622;2023-04-25T15:07:37;11.35;;;1.30;;
14203;SDS011;7185;51.854;6.622;2023-04-25T15:10:09;6.22;;;1.65;;
14203;SDS011;7185;51.854;6.622;2023-04-25T15:12:45;11.52;;;1.42;;
14203;SDS011;7185;51.854;6.622;2023-04-25T15:15:17;6.57;;;1.55;;
14203;SDS011;7185;51.854;6.622;2023-04-25T15:17:49;6.80;;;1.67;;
14203;SDS011;7185;51.854;6.622;2023-04-25T15:20:20;4.85;;;1.83;;
14203;SDS011;7185;51.854;6.622;2023-04-25T15:22:53;6.38;;;1.10;;
14203;SDS011;7185;51.854;6.622;2023-04-25T15:25:25;6.25;;;1.88;;
14203;SDS011;7185;51.854;6.622;2023-04-25T15:27:59;5.07;;;1.25;;
14203;SDS011;7185;51.854;6.622;2023-04-25T15:30:31;3.33;;;1.20;;
14203;SDS011;7185;51.854;6.622;2023-04-25T15:33:03;6.65;;;1.48;;